sensor_id;sensor_type;location;lat;lon;timestamp;pressure;altitude;pressure_sealevel;temperature;humidity
50672;BME280;46021;55.882;37.654;2023-01-05T00:02:01;98680.28;;;-3.81;80.73
50672;BME280;46021;55.882;37.654;2023-01-05T00:04:27;98681.13;;;-3.81;81.31
50672;BME280;46021;55.882;37.654;2023-01-05T00:06:56;98676.84;;;-3.83;81.77
50672;BME280;46021;55.882;37.654;2023-01-05T00:09:22;98685.31;;;-3.87;80.81
50672;BME280;46021;55.882;37.654;2023-01-05T00:11:49;98678.50;;;-3.88;80.92
50672;BME280;46021;55.882;37.654;2023-01-05T00:14:33;98675.03;;;-3.95;80.32
50672;BME280;46021;55.882;37.654;2023-01-05T00:17:18;98679.28;;;-3.94;80.07
50672;BME280;46021;55.882;37.654;2023-01-05T00:20:03;98677.56;;;-3.95;79.77
50672;BME280;46021;55.882;37.654;2023-01-05T00:22:49;98668.19;;;-4.02;81.38
50672;BME280;46021;55.882;37.654;2023-01-05T00:25:17;98666.44;;;-4.05;79.57
50672;BME280;46021;55.882;37.654;2023-01-05T00:27:45;98669.69;;;-4.20;79.79
50672;BME280;46021;55.882;37.654;2023-01-05T00:30:12;98664.59;;;-4.21;78.35
50672;BME280;46021;55.882;37.654;2023-01-05T00:32:41;98667.97;;;-4.22;78.92
50672;BME280;46021;55.882;37.654;2023-01-05T00:35:08;98670.47;;;-4.25;78.79
50672;BME280;46021;55.882;37.654;2023-01-05T00:37:35;98662.56;;;-4.50;77.81
50672;BME280;46021;55.882;37.654;2023-01-05T00:40:04;98660.22;;;-4.35;78.63
50672;BME280;46021;55.882;37.654;2023-01-05T00:42:31;98664.44;;;-4.34;78.70
50672;BME280;46021;55.882;37.654;2023-01-05T00:44:58;98661.09;;;-4.33;78.60
50672;BME280;46021;55.882;37.654;2023-01-05T00:47:25;98660.28;;;-4.27;80.05
50672;BME280;46021;55.882;37.654;2023-01-05T00:49:52;98664.63;;;-4.18;80.10
50672;BME280;46021;55.882;37.654;2023-01-05T00:52:19;98672.28;;;-4.17;80.10
50672;BME280;46021;55.882;37.654;2023-01-05T00:54:45;98661.19;;;-4.20;79.68
50672;BME280;46021;55.882;37.654;2023-01-05T00:57:13;98668.00;;;-4.19;78.25
50672;BME280;46021;55.882;37.654;2023-01-05T00:59:40;98667.19;;;-4.17;78.54
50672;BME280;46021;55.882;37.654;2023-01-05T01:02:07;98660.41;;;-4.18;79.89
50672;BME280;46021;55.882;37.654;2023-01-05T01:04:34;98661.13;;;-4.28;78.92
50672;BME280;46021;55.882;37.654;2023-01-05T01:07:02;98659.41;;;-4.31;78.28
50672;BME280;46021;55.882;37.654;2023-01-05T01:09:29;98663.63;;;-4.33;78.73
50672;BME280;46021;55.882;37.654;2023-01-05T01:11:56;98659.31;;;-4.37;79.38
50672;BME280;46021;55.882;37.654;2023-01-05T01:14:25;98652.47;;;-4.42;79.34
50672;BME280;46021;55.882;37.654;2023-01-05T01:16:52;98658.41;;;-4.43;80.28
50672;BME280;46021;55.882;37.654;2023-01-05T01:19:19;98652.38;;;-4.50;79.27
50672;BME280;46021;55.882;37.654;2023-01-05T01:21:46;98649.91;;;-4.45;80.54
50672;BME280;46021;55.882;37.654;2023-01-05T01:24:14;98641.34;;;-4.52;79.39
50672;BME280;46021;55.882;37.654;2023-01-05T01:26:42;98645.63;;;-4.48;79.05
50672;BME280;46021;55.882;37.654;2023-01-05T01:29:09;98637.91;;;-4.57;79.50
50672;BME280;46021;55.882;37.654;2023-01-05T01:31:37;98645.56;;;-4.54;80.18
50672;BME280;46021;55.882;37.654;2023-01-05T01:34:04;98653.22;;;-4.53;77.86
50672;BME280;46021;55.882;37.654;2023-01-05T01:36:31;98654.91;;;-4.50;80.11
50672;BME280;46021;55.882;37.654;2023-01-05T01:38:57;98654.91;;;-4.50;80.34
50672;BME280;46021;55.882;37.654;2023-01-05T01:41:24;98654.09;;;-4.49;79.15
50672;BME280;46021;55.882;37.654;2023-01-05T01:43:52;98660.91;;;-4.46;79.75
50672;BME280;46021;55.882;37.654;2023-01-05T01:46:21;98653.28;;;-4.46;78.92
50672;BME280;46021;55.882;37.654;2023-01-05T01:48:50;98652.44;;;-4.47;79.19
50672;BME280;46021;55.882;37.654;2023-01-05T01:51:19;98647.28;;;-4.50;79.55
50672;BME280;46021;55.882;37.654;2023-01-05T01:53:48;98647.28;;;-4.53;78.23
50672;BME280;46021;55.882;37.654;2023-01-05T01:56:17;98643.81;;;-4.58;78.60
50672;BME280;46021;55.882;37.654;2023-01-05T01:58:44;98640.34;;;-4.63;79.23
50672;BME280;46021;55.882;37.654;2023-01-05T02:01:11;98647.13;;;-4.64;80.55
50672;BME280;46021;55.882;37.654;2023-01-05T02:03:40;98640.28;;;-4.70;79.06
50672;BME280;46021;55.882;37.654;2023-01-05T02:06:13;98646.22;;;-4.71;79.34
50672;BME280;46021;55.882;37.654;2023-01-05T02:08:40;98641.91;;;-4.78;79.36
50672;BME280;46021;55.882;37.654;2023-01-05T02:11:16;98651.25;;;-4.74;78.27
50672;BME280;46021;55.882;37.654;2023-01-05T02:13:53;98652.09;;;-4.73;78.78
50672;BME280;46021;55.882;37.654;2023-01-05T02:16:32;98642.78;;;-4.73;79.65
50672;BME280;46021;55.882;37.654;2023-01-05T02:19:11;98640.22;;;-4.76;78.40
50672;BME280;46021;55.882;37.654;2023-01-05T02:21:48;98636.81;;;-4.78;79.37
50672;BME280;46021;55.882;37.654;2023-01-05T02:24:39;98636.81;;;-4.78;78.43
50672;BME280;46021;55.882;37.654;2023-01-05T02:30:10;98636.69;;;-4.87;78.77
50672;BME280;46021;55.882;37.654;2023-01-05T02:32:43;98623.97;;;-4.87;78.57
50672;BME280;46021;55.882;37.654;2023-01-05T02:35:15;98640.09;;;-4.85;79.49
50672;BME280;46021;55.882;37.654;2023-01-05T02:37:45;98627.41;;;-4.85;78.72
50672;BME280;46021;55.882;37.654;2023-01-05T02:40:14;98630.72;;;-4.89;78.70
50672;BME280;46021;55.882;37.654;2023-01-05T02:42:45;98631.47;;;-4.96;78.88
50672;BME280;46021;55.882;37.654;2023-01-05T02:45:15;98629.69;;;-5.03;78.91
50672;BME280;46021;55.882;37.654;2023-01-05T02:47:43;98632.22;;;-5.06;78.27
50672;BME280;46021;55.882;37.654;2023-01-05T02:50:13;98630.44;;;-5.12;78.10
50672;BME280;46021;55.882;37.654;2023-01-05T02:52:42;98633.88;;;-5.07;79.62
50672;BME280;46021;55.882;37.654;2023-01-05T02:55:15;98631.34;;;-5.05;79.15
50672;BME280;46021;55.882;37.654;2023-01-05T02:57:44;98624.59;;;-5.06;79.34
50672;BME280;46021;55.882;37.654;2023-01-05T03:00:19;98623.59;;;-5.18;78.63
50672;BME280;46021;55.882;37.654;2023-01-05T03:02:50;98616.50;;;-5.37;78.75
50672;BME280;46021;55.882;37.654;2023-01-05T03:05:20;98612.16;;;-5.44;78.75
50672;BME280;46021;55.882;37.654;2023-01-05T03:07:49;98606.22;;;-5.46;79.04
50672;BME280;46021;55.882;37.654;2023-01-05T03:10:17;98607.16;;;-5.41;79.48
50672;BME280;46021;55.882;37.654;2023-01-05T03:13:04;98613.84;;;-5.46;78.44
50672;BME280;46021;55.882;37.654;2023-01-05T03:15:49;98612.16;;;-5.44;79.21
50672;BME280;46021;55.882;37.654;2023-01-05T03:18:24;98617.38;;;-5.35;79.99
50672;BME280;46021;55.882;37.654;2023-01-05T03:20:52;98615.72;;;-5.35;78.96
50672;BME280;46021;55.882;37.654;2023-01-05T03:23:19;98605.56;;;-5.33;79.00
50672;BME280;46021;55.882;37.654;2023-01-05T03:26:04;98609.03;;;-5.28;79.84
50672;BME280;46021;55.882;37.654;2023-01-05T03:28:50;98604.63;;;-5.40;78.98
50672;BME280;46021;55.882;37.654;2023-01-05T03:31:38;98605.53;;;-5.36;79.33
50672;BME280;46021;55.882;37.654;2023-01-05T03:34:28;98597.06;;;-5.35;79.57
50672;BME280;46021;55.882;37.654;2023-01-05T03:37:21;98602.94;;;-5.39;79.67
50672;BME280;46021;55.882;37.654;2023-01-05T03:39:50;98601.97;;;-5.47;78.51
50672;BME280;46021;55.882;37.654;2023-01-05T03:42:18;98587.53;;;-5.52;78.68
50672;BME280;46021;55.882;37.654;2023-01-05T03:44:45;98594.31;;;-5.51;79.09
50672;BME280;46021;55.882;37.654;2023-01-05T03:47:16;98589.97;;;-5.59;78.96
50672;BME280;46021;55.882;37.654;2023-01-05T03:49:45;98581.47;;;-5.60;79.38
50672;BME280;46021;55.882;37.654;2023-01-05T03:52:12;98584.94;;;-5.55;79.80
50672;BME280;46021;55.882;37.654;2023-01-05T03:54:41;98584.94;;;-5.55;79.27
50672;BME280;46021;55.882;37.654;2023-01-05T03:57:08;98585.75;;;-5.56;78.50
50672;BME280;46021;55.882;37.654;2023-01-05T03:59:35;98589.13;;;-5.58;77.47
50672;BME280;46021;55.882;37.654;2023-01-05T04:02:02;98584.88;;;-5.59;78.12
50672;BME280;46021;55.882;37.654;2023-01-05T04:04:30;98579.69;;;-5.67;77.15
50672;BME280;46021;55.882;37.654;2023-01-05T04:07:00;98572.97;;;-5.65;78.50
50672;BME280;46021;55.882;37.654;2023-01-05T04:09:30;98574.66;;;-5.64;77.54
50672;BME280;46021;55.882;37.654;2023-01-05T04:11:58;98564.47;;;-5.67;78.03
50672;BME280;46021;55.882;37.654;2023-01-05T04:14:25;98577.16;;;-5.65;77.64
50672;BME280;46021;55.882;37.654;2023-01-05T04:16:52;98574.59;;;-5.69;77.82
50672;BME280;46021;55.882;37.654;2023-01-05T04:19:21;98577.00;;;-5.78;76.76
50672;BME280;46021;55.882;37.654;2023-01-05T04:21:51;98575.25;;;-5.79;77.23
50672;BME280;46021;55.882;37.654;2023-01-05T04:24:21;98573.44;;;-5.89;77.24
50672;BME280;46021;55.882;37.654;2023-01-05T04:26:48;98578.44;;;-5.92;77.13
50672;BME280;46021;55.882;37.654;2023-01-05T04:29:17;98570.88;;;-5.91;78.35
50672;BME280;46021;55.882;37.654;2023-01-05T04:31:47;98567.50;;;-5.90;77.94
50672;BME280;46021;55.882;37.654;2023-01-05T04:34:14;98568.38;;;-5.86;78.39
50672;BME280;46021;55.882;37.654;2023-01-05T04:36:42;98555.78;;;-5.81;78.87
50672;BME280;46021;55.882;37.654;2023-01-05T04:39:14;98554.88;;;-5.85;78.20
50672;BME280;46021;55.882;37.654;2023-01-05T04:41:42;98557.47;;;-5.80;78.48
50672;BME280;46021;55.882;37.654;2023-01-05T04:44:09;98562.53;;;-5.83;77.49
50672;BME280;46021;55.882;37.654;2023-01-05T04:46:36;98565.09;;;-5.82;77.65
50672;BME280;46021;55.882;37.654;2023-01-05T04:49:03;98568.50;;;-5.80;77.51
50672;BME280;46021;55.882;37.654;2023-01-05T04:51:30;98560.94;;;-5.75;78.38
50672;BME280;46021;55.882;37.654;2023-01-05T04:53:57;98567.75;;;-5.71;78.84
50672;BME280;46021;55.882;37.654;2023-01-05T04:56:24;98564.34;;;-5.73;77.86
50672;BME280;46021;55.882;37.654;2023-01-05T04:58:52;98555.94;;;-5.72;78.10
50672;BME280;46021;55.882;37.654;2023-01-05T05:01:19;98561.00;;;-5.72;77.79
50672;BME280;46021;55.882;37.654;2023-01-05T05:03:50;98552.50;;;-5.74;78.50
50672;BME280;46021;55.882;37.654;2023-01-05T05:06:19;98551.47;;;-5.87;76.99
50672;BME280;46021;55.882;37.654;2023-01-05T05:08:47;98555.56;;;-5.98;75.84
50672;BME280;46021;55.882;37.654;2023-01-05T05:11:14;98558.19;;;-5.89;76.99
50672;BME280;46021;55.882;37.654;2023-01-05T05:13:44;98555.78;;;-5.81;77.87
50672;BME280;46021;55.882;37.654;2023-01-05T05:16:13;98562.63;;;-5.76;78.46
50672;BME280;46021;55.882;37.654;2023-01-05T05:18:42;98555.09;;;-5.70;78.63
50672;BME280;46021;55.882;37.654;2023-01-05T05:21:14;98556.00;;;-5.66;77.65
50672;BME280;46021;55.882;37.654;2023-01-05T05:23:41;98555.19;;;-5.63;77.97
50672;BME280;46021;55.882;37.654;2023-01-05T05:26:08;98555.19;;;-5.65;76.99
50672;BME280;46021;55.882;37.654;2023-01-05T05:28:35;98555.19;;;-5.65;77.71
50672;BME280;46021;55.882;37.654;2023-01-05T05:31:02;98549.19;;;-5.70;77.61
50672;BME280;46021;55.882;37.654;2023-01-05T05:33:30;98539.72;;;-5.79;77.12
50672;BME280;46021;55.882;37.654;2023-01-05T05:35:57;98554.25;;;-5.70;77.13
50672;BME280;46021;55.882;37.654;2023-01-05T05:38:24;98554.22;;;-5.72;76.52
50672;BME280;46021;55.882;37.654;2023-01-05T05:40:50;98545.78;;;-5.72;76.88
50672;BME280;46021;55.882;37.654;2023-01-05T05:43:17;98550.03;;;-5.70;77.24
50672;BME280;46021;55.882;37.654;2023-01-05T05:45:44;98555.13;;;-5.68;76.88
50672;BME280;46021;55.882;37.654;2023-01-05T05:48:11;98551.72;;;-5.70;77.25
50672;BME280;46021;55.882;37.654;2023-01-05T05:50:39;98548.38;;;-5.66;78.84
50672;BME280;46021;55.882;37.654;2023-01-05T05:53:06;98545.00;;;-5.66;78.21
50672;BME280;46021;55.882;37.654;2023-01-05T05:55:33;98548.44;;;-5.63;77.93
50672;BME280;46021;55.882;37.654;2023-01-05T05:58:00;98542.59;;;-5.56;78.67
50672;BME280;46021;55.882;37.654;2023-01-05T06:00:27;98556.22;;;-5.51;78.30
50672;BME280;46021;55.882;37.654;2023-01-05T06:02:53;98548.69;;;-5.46;78.67
50672;BME280;46021;55.882;37.654;2023-01-05T06:05:20;98546.13;;;-5.44;77.57
50672;BME280;46021;55.882;37.654;2023-01-05T06:07:48;98536.03;;;-5.41;78.11
50672;BME280;46021;55.882;37.654;2023-01-05T06:10:15;98535.22;;;-5.39;77.96
50672;BME280;46021;55.882;37.654;2023-01-05T06:12:42;98542.00;;;-5.39;77.76
50672;BME280;46021;55.882;37.654;2023-01-05T06:15:09;98537.78;;;-5.37;77.14
50672;BME280;46021;55.882;37.654;2023-01-05T06:17:36;98539.50;;;-5.36;76.94
50672;BME280;46021;55.882;37.654;2023-01-05T06:20:03;98543.72;;;-5.35;78.52
50672;BME280;46021;55.882;37.654;2023-01-05T06:22:30;98531.81;;;-5.42;76.89
50672;BME280;46021;55.882;37.654;2023-01-05T06:24:58;98531.00;;;-5.38;78.26
50672;BME280;46021;55.882;37.654;2023-01-05T06:27:25;98540.28;;;-5.40;78.33
50672;BME280;46021;55.882;37.654;2023-01-05T06:29:52;98539.44;;;-5.42;77.65
50672;BME280;46021;55.882;37.654;2023-01-05T06:32:19;98537.75;;;-5.40;77.59
50672;BME280;46021;55.882;37.654;2023-01-05T06:34:45;98534.41;;;-5.36;78.13
50672;BME280;46021;55.882;37.654;2023-01-05T06:37:12;98535.19;;;-5.42;78.13
50672;BME280;46021;55.882;37.654;2023-01-05T06:39:39;98534.09;;;-5.61;77.13
50672;BME280;46021;55.882;37.654;2023-01-05T06:42:07;98535.63;;;-5.69;76.65
50672;BME280;46021;55.882;37.654;2023-01-05T06:44:34;98533.09;;;-5.69;76.96
50672;BME280;46021;55.882;37.654;2023-01-05T06:47:01;98525.38;;;-5.78;77.53
50672;BME280;46021;55.882;37.654;2023-01-05T06:49:27;98522.75;;;-5.83;77.57
50672;BME280;46021;55.882;37.654;2023-01-05T06:51:54;98528.66;;;-5.85;77.35
50672;BME280;46021;55.882;37.654;2023-01-05T06:54:21;98525.25;;;-5.88;77.69
50672;BME280;46021;55.882;37.654;2023-01-05T06:56:48;98525.25;;;-5.88;77.32
50672;BME280;46021;55.882;37.654;2023-01-05T06:59:16;98516.00;;;-5.82;78.36
50672;BME280;46021;55.882;37.654;2023-01-05T07:01:42;98517.72;;;-5.81;77.49
50672;BME280;46021;55.882;37.654;2023-01-05T07:04:09;98520.06;;;-5.94;77.15
50672;BME280;46021;55.882;37.654;2023-01-05T07:06:36;98526.72;;;-6.03;76.59
50672;BME280;46021;55.882;37.654;2023-01-05T07:09:03;98520.72;;;-6.09;77.23
50672;BME280;46021;55.882;37.654;2023-01-05T07:11:30;98526.72;;;-6.03;76.52
50672;BME280;46021;55.882;37.654;2023-01-05T07:13:57;98519.25;;;-5.93;77.62
50672;BME280;46021;55.882;37.654;2023-01-05T07:16:25;98524.44;;;-5.85;77.41
50672;BME280;46021;55.882;37.654;2023-01-05T07:18:52;98522.00;;;-5.77;77.55
50672;BME280;46021;55.882;37.654;2023-01-05T07:21:19;98521.22;;;-5.72;77.04
50672;BME280;46021;55.882;37.654;2023-01-05T07:23:45;98514.56;;;-5.66;77.44
50672;BME280;46021;55.882;37.654;2023-01-05T07:26:12;98517.88;;;-5.69;76.54
50672;BME280;46021;55.882;37.654;2023-01-05T07:28:39;98520.41;;;-5.69;75.81
50672;BME280;46021;55.882;37.654;2023-01-05T07:31:06;98523.06;;;-5.61;77.60
50672;BME280;46021;55.882;37.654;2023-01-05T07:33:34;98510.25;;;-5.72;75.88
50672;BME280;46021;55.882;37.654;2023-01-05T07:36:01;98521.22;;;-5.73;76.70
50672;BME280;46021;55.882;37.654;2023-01-05T07:38:28;98521.91;;;-5.83;76.06
50672;BME280;46021;55.882;37.654;2023-01-05T07:40:56;98518.47;;;-5.87;76.90
50672;BME280;46021;55.882;37.654;2023-01-05T07:43:23;98520.19;;;-5.84;76.66
50672;BME280;46021;55.882;37.654;2023-01-05T07:45:50;98519.34;;;-5.85;75.62
50672;BME280;46021;55.882;37.654;2023-01-05T07:48:17;98523.63;;;-5.81;75.76
50672;BME280;46021;55.882;37.654;2023-01-05T07:50:46;98520.38;;;-5.74;76.38
50672;BME280;46021;55.882;37.654;2023-01-05T07:53:12;98526.38;;;-5.65;75.54
50672;BME280;46021;55.882;37.654;2023-01-05T07:55:39;98528.22;;;-5.57;75.65
50672;BME280;46021;55.882;37.654;2023-01-05T07:58:06;98515.56;;;-5.54;75.38
50672;BME280;46021;55.882;37.654;2023-01-05T08:00:33;98524.13;;;-5.45;75.50
50672;BME280;46021;55.882;37.654;2023-01-05T08:02:59;98530.97;;;-5.41;74.18
50672;BME280;46021;55.882;37.654;2023-01-05T08:05:26;98516.50;;;-5.47;73.36
50672;BME280;46021;55.882;37.654;2023-01-05T08:07:59;98513.09;;;-5.49;73.57
50672;BME280;46021;55.882;37.654;2023-01-05T08:10:26;98518.22;;;-5.46;74.80
50672;BME280;46021;55.882;37.654;2023-01-05T08:13:00;98523.19;;;-5.54;74.30
50672;BME280;46021;55.882;37.654;2023-01-05T08:15:44;98516.25;;;-5.65;73.58
50672;BME280;46021;55.882;37.654;2023-01-05T08:18:11;98522.28;;;-5.59;75.17
50672;BME280;46021;55.882;37.654;2023-01-05T08:20:38;98518.81;;;-5.64;73.72
50672;BME280;46021;55.882;37.654;2023-01-05T08:23:07;98511.88;;;-5.76;73.73
50672;BME280;46021;55.882;37.654;2023-01-05T08:25:33;98510.19;;;-5.75;74.70
50672;BME280;46021;55.882;37.654;2023-01-05T08:28:00;98518.72;;;-5.70;74.86
50672;BME280;46021;55.882;37.654;2023-01-05T08:30:27;98514.47;;;-5.71;75.22
50672;BME280;46021;55.882;37.654;2023-01-05T08:32:54;98508.31;;;-5.89;74.38
50672;BME280;46021;55.882;37.654;2023-01-05T08:35:20;98521.78;;;-5.93;75.02
50672;BME280;46021;55.882;37.654;2023-01-05T08:37:47;98512.56;;;-5.88;75.39
50672;BME280;46021;55.882;37.654;2023-01-05T08:40:15;98517.72;;;-5.81;76.26
50672;BME280;46021;55.882;37.654;2023-01-05T08:42:42;98518.38;;;-5.95;74.89
50672;BME280;46021;55.882;37.654;2023-01-05T08:45:12;98518.38;;;-5.95;74.42
50672;BME280;46021;55.882;37.654;2023-01-05T08:47:39;98509.56;;;-6.18;73.92
50672;BME280;46021;55.882;37.654;2023-01-05T08:50:06;98507.50;;;-6.41;74.37
50672;BME280;46021;55.882;37.654;2023-01-05T08:52:34;98506.88;;;-6.28;74.92
50672;BME280;46021;55.882;37.654;2023-01-05T08:55:01;98508.34;;;-6.42;74.63
50672;BME280;46021;55.882;37.654;2023-01-05T08:57:30;98506.88;;;-6.29;74.60
50672;BME280;46021;55.882;37.654;2023-01-05T08:59:57;98503.47;;;-6.30;74.20
50672;BME280;46021;55.882;37.654;2023-01-05T09:02:23;98518.50;;;-6.42;73.78
50672;BME280;46021;55.882;37.654;2023-01-05T09:04:50;98494.47;;;-6.62;73.58
50672;BME280;46021;55.882;37.654;2023-01-05T09:07:17;98514.13;;;-6.49;73.72
50672;BME280;46021;55.882;37.654;2023-01-05T09:09:44;98511.72;;;-6.41;74.95
50672;BME280;46021;55.882;37.654;2023-01-05T09:12:11;98507.59;;;-6.36;74.23
50672;BME280;46021;55.882;37.654;2023-01-05T09:14:39;98497.94;;;-6.57;72.71
50672;BME280;46021;55.882;37.654;2023-01-05T09:17:06;98492.22;;;-6.45;74.62
50672;BME280;46021;55.882;37.654;2023-01-05T09:19:32;98490.66;;;-6.39;73.89
50672;BME280;46021;55.882;37.654;2023-01-05T09:21:59;98499.84;;;-6.45;73.64
50672;BME280;46021;55.882;37.654;2023-01-05T09:24:26;98488.19;;;-6.34;74.39
50672;BME280;46021;55.882;37.654;2023-01-05T09:26:53;98484.06;;;-6.28;73.61
50672;BME280;46021;55.882;37.654;2023-01-05T09:29:20;98478.19;;;-6.25;74.36
50672;BME280;46021;55.882;37.654;2023-01-05T09:31:48;98482.28;;;-6.35;73.66
50672;BME280;46021;55.882;37.654;2023-01-05T09:34:14;98483.13;;;-6.34;72.85
50672;BME280;46021;55.882;37.654;2023-01-05T09:36:42;98483.91;;;-6.38;72.66
50672;BME280;46021;55.882;37.654;2023-01-05T09:39:09;98487.09;;;-6.50;72.66
50672;BME280;46021;55.882;37.654;2023-01-05T09:41:36;98471.91;;;-6.47;73.10
50672;BME280;46021;55.882;37.654;2023-01-05T09:44:04;98479.56;;;-6.45;73.17
50672;BME280;46021;55.882;37.654;2023-01-05T09:46:32;98484.38;;;-6.61;73.42
50672;BME280;46021;55.882;37.654;2023-01-05T09:49:02;98461.63;;;-6.56;73.35
50672;BME280;46021;55.882;37.654;2023-01-05T09:51:30;98470.78;;;-6.64;72.66
50672;BME280;46021;55.882;37.654;2023-01-05T09:53:58;98473.31;;;-6.64;72.41
50672;BME280;46021;55.882;37.654;2023-01-05T09:56:26;98465.00;;;-6.57;72.08
50672;BME280;46021;55.882;37.654;2023-01-05T09:58:55;98457.34;;;-6.60;70.64
50672;BME280;46021;55.882;37.654;2023-01-05T10:01:26;98463.44;;;-6.49;71.42
50672;BME280;46021;55.882;37.654;2023-01-05T10:03:53;98479.41;;;-6.55;70.27
50672;BME280;46021;55.882;37.654;2023-01-05T10:06:24;98457.31;;;-6.62;71.29
50672;BME280;46021;55.882;37.654;2023-01-05T10:08:51;98457.44;;;-6.56;71.42
50672;BME280;46021;55.882;37.654;2023-01-05T10:11:19;98462.69;;;-6.43;70.88
50672;BME280;46021;55.882;37.654;2023-01-05T10:14:05;98458.69;;;-6.28;71.96
50672;BME280;46021;55.882;37.654;2023-01-05T10:16:34;98462.16;;;-6.22;69.71
50672;BME280;46021;55.882;37.654;2023-01-05T10:19:01;98450.56;;;-6.05;72.62
50672;BME280;46021;55.882;37.654;2023-01-05T10:21:32;98456.59;;;-5.98;70.13
50672;BME280;46021;55.882;37.654;2023-01-05T10:24:08;98442.16;;;-6.04;68.79
50672;BME280;46021;55.882;37.654;2023-01-05T10:26:40;98447.34;;;-5.93;70.18
50672;BME280;46021;55.882;37.654;2023-01-05T10:29:10;98446.53;;;-5.91;69.18
50672;BME280;46021;55.882;37.654;2023-01-05T10:31:43;98443.88;;;-6.00;68.17
50672;BME280;46021;55.882;37.654;2023-01-05T10:34:14;98442.41;;;-5.82;68.99
50672;BME280;46021;55.882;37.654;2023-01-05T10:36:50;98433.91;;;-5.84;68.62
50672;BME280;46021;55.882;37.654;2023-01-05T10:39:22;98439.25;;;-5.66;71.75
50672;BME280;46021;55.882;37.654;2023-01-05T10:41:54;98434.88;;;-5.76;70.13
50672;BME280;46021;55.882;37.654;2023-01-05T10:44:33;98426.41;;;-5.77;68.26
50672;BME280;46021;55.882;37.654;2023-01-05T10:47:00;98437.56;;;-5.67;70.16
50672;BME280;46021;55.882;37.654;2023-01-05T10:49:28;98436.75;;;-5.63;68.91
50672;BME280;46021;55.882;37.654;2023-01-05T10:51:57;98435.94;;;-5.59;67.26
50672;BME280;46021;55.882;37.654;2023-01-05T10:54:28;98439.75;;;-5.90;66.44
50672;BME280;46021;55.882;37.654;2023-01-05T10:57:02;98443.16;;;-5.91;67.60
50672;BME280;46021;55.882;37.654;2023-01-05T10:59:53;98439.38;;;-6.21;67.72
50672;BME280;46021;55.882;37.654;2023-01-05T11:02:20;98447.66;;;-6.30;68.16
50672;BME280;46021;55.882;37.654;2023-01-05T11:04:47;98450.09;;;-6.39;67.37
50672;BME280;46021;55.882;37.654;2023-01-05T11:07:15;98439.94;;;-6.37;69.31
50672;BME280;46021;55.882;37.654;2023-01-05T11:09:42;98445.03;;;-6.39;68.59
50672;BME280;46021;55.882;37.654;2023-01-05T11:12:14;98438.16;;;-6.43;67.50
50672;BME280;46021;55.882;37.654;2023-01-05T11:14:42;98446.72;;;-6.38;68.67
50672;BME280;46021;55.882;37.654;2023-01-05T11:17:15;98443.53;;;-6.24;70.20
50672;BME280;46021;55.882;37.654;2023-01-05T11:19:44;98431.50;;;-6.38;68.79
50672;BME280;46021;55.882;37.654;2023-01-05T11:22:30;98443.09;;;-6.52;67.62
50672;BME280;46021;55.882;37.654;2023-01-05T11:25:11;98446.47;;;-6.53;68.61
50672;BME280;46021;55.882;37.654;2023-01-05T11:27:39;98432.06;;;-6.56;69.10
50672;BME280;46021;55.882;37.654;2023-01-05T11:30:15;98436.28;;;-6.56;68.70
50672;BME280;46021;55.882;37.654;2023-01-05T11:32:43;98440.31;;;-6.68;68.20
50672;BME280;46021;55.882;37.654;2023-01-05T11:35:15;98444.53;;;-6.68;68.79
50672;BME280;46021;55.882;37.654;2023-01-05T11:37:45;98446.13;;;-6.73;68.48
50672;BME280;46021;55.882;37.654;2023-01-05T11:40:15;98449.38;;;-6.82;68.78
50672;BME280;46021;55.882;37.654;2023-01-05T11:42:43;98446.63;;;-6.94;66.82
50672;BME280;46021;55.882;37.654;2023-01-05T11:45:20;98450.97;;;-6.87;69.02
50672;BME280;46021;55.882;37.654;2023-01-05T11:47:48;98443.84;;;-7.08;67.01
50672;BME280;46021;55.882;37.654;2023-01-05T11:50:19;98447.22;;;-7.08;68.52
50672;BME280;46021;55.882;37.654;2023-01-05T11:52:51;98448.47;;;-7.31;67.38
50672;BME280;46021;55.882;37.654;2023-01-05T11:55:29;98451.81;;;-7.32;68.44
50672;BME280;46021;55.882;37.654;2023-01-05T11:58:08;98450.50;;;-7.57;67.96
50672;BME280;46021;55.882;37.654;2023-01-05T12:00:38;98446.34;;;-7.54;68.34
50672;BME280;46021;55.882;37.654;2023-01-05T12:03:12;98441.28;;;-7.54;68.67
50672;BME280;46021;55.882;37.654;2023-01-05T12:05:45;98450.88;;;-7.39;69.06
50672;BME280;46021;55.882;37.654;2023-01-05T12:08:15;98450.06;;;-7.36;68.16
50672;BME280;46021;55.882;37.654;2023-01-05T12:10:49;98441.41;;;-7.48;68.80
50672;BME280;46021;55.882;37.654;2023-01-05T12:13:27;98440.22;;;-7.65;67.51
50672;BME280;46021;55.882;37.654;2023-01-05T12:16:06;98445.34;;;-7.60;68.13
50672;BME280;46021;55.882;37.654;2023-01-05T12:18:45;98443.50;;;-7.69;68.53
50672;BME280;46021;55.882;37.654;2023-01-05T12:21:19;98443.31;;;-7.78;68.02
50672;BME280;46021;55.882;37.654;2023-01-05T12:23:52;98452.66;;;-7.74;68.76
50672;BME280;46021;55.882;37.654;2023-01-05T12:26:22;98442.63;;;-7.70;68.86
50672;BME280;46021;55.882;37.654;2023-01-05T12:28:54;98446.09;;;-7.66;68.40
50672;BME280;46021;55.882;37.654;2023-01-05T12:31:28;98446.03;;;-7.69;68.49
50672;BME280;46021;55.882;37.654;2023-01-05T12:34:11;98442.50;;;-7.76;69.64
50672;BME280;46021;55.882;37.654;2023-01-05T12:36:45;98438.81;;;-7.92;69.44
50672;BME280;46021;55.882;37.654;2023-01-05T12:39:28;98448.53;;;-8.10;69.29
50672;BME280;46021;55.882;37.654;2023-01-05T12:42:03;98439.75;;;-8.25;70.01
50672;BME280;46021;55.882;37.654;2023-01-05T12:44:43;98454.94;;;-8.25;70.08
50672;BME280;46021;55.882;37.654;2023-01-05T12:47:30;98457.28;;;-8.32;70.16
50672;BME280;46021;55.882;37.654;2023-01-05T12:50:02;98458.59;;;-8.50;70.07
50672;BME280;46021;55.882;37.654;2023-01-05T12:52:33;98461.22;;;-8.45;70.91
50672;BME280;46021;55.882;37.654;2023-01-05T12:55:03;98459.16;;;-8.61;70.27
50672;BME280;46021;55.882;37.654;2023-01-05T12:57:32;98462.25;;;-8.72;70.34
50672;BME280;46021;55.882;37.654;2023-01-05T13:00:00;98469.84;;;-8.72;71.00
50672;BME280;46021;55.882;37.654;2023-01-05T13:02:31;98461.22;;;-8.80;71.21
50672;BME280;46021;55.882;37.654;2023-01-05T13:05:00;98457.31;;;-9.00;71.02
50672;BME280;46021;55.882;37.654;2023-01-05T13:07:29;98458.16;;;-9.02;71.18